Latest Weather Observations for Longreach

IDQ60801

Issued at 3:32 pm EST Sunday 29 March 2015 (issued every 30 minutes, with the page automatically refreshed every 10 minutes)

About weather observations | Map of weather stations | Latest weather observations for QLD | Other Formats
Station Details ID: 036031 Name: LONGREACH AERO Lat: -23.44 Lon: 144.28 Height: 192.2 m
Data from the previous 72 hours. | See also: Recent months at Longreach
Date/Time
EST
Temp
°C
App
Temp
°C
Dew
Point
Rel
Hum
%
Delta-T
°C
Wind Press
QNH
hPa
Press
MSL
hPa
Rain
since 9 am
mm
Dir
 
Spd
km/h
Gust
km/h
Spd
kts
Gust
kts
29/03:30pm 34.5 32.8 13.6 28 12.8 ENE 15 24 8 13 1014.8 - 0.0
29/03:00pm 35.7 34.9 14.1 27 13.4 NNE 11 17 6 9 1015.1 1013.9 0.0
29/02:30pm 35.8 34.5 13.8 26 13.6 NNE 13 17 7 9 1015.6 - 0.0
29/02:00pm 35.0 32.9 13.5 27 13.2 N 17 32 9 17 1016.0 - 0.0
29/01:30pm 35.0 33.0 13.9 28 13.0 NE 17 39 9 21 1016.5 - 0.0
29/01:00pm 34.9 32.7 14.5 29 12.7 NE 19 28 10 15 1017.1 - 0.0
29/12:30pm 35.1 32.9 14.8 29 12.7 NE 20 30 11 16 1017.6 - 0.0
29/12:00pm 33.7 30.9 15.3 33 11.5 NE 24 37 13 20 1018.2 1017.0 0.0
29/11:30am 33.8 30.0 14.8 32 11.8 N 28 39 15 21 1018.6 - 0.0
29/11:00am 32.7 29.1 15.2 34 10.9 NE 28 37 15 20 1018.9 - 0.0
29/10:30am 32.5 29.1 15.8 36 10.5 N 28 35 15 19 1019.2 - 0.0
29/10:00am 31.3 28.1 16.2 40 9.5 NNE 28 37 15 20 1019.5 - 0.0
29/09:30am 30.1 26.4 16.0 42 8.8 NNE 30 37 16 20 1019.4 - 0.0
29/09:00am 29.4 26.6 16.3 45 8.2 NNE 26 33 14 18 1019.3 1018.1 0.2
29/08:30am 28.7 26.1 16.0 46 7.9 NE 24 32 13 17 1019.0 - 0.0
29/08:00am 28.1 25.9 16.0 47 7.5 NE 22 30 12 16 1018.4 - 0.0
29/07:30am 26.3 25.8 15.9 52 6.4 NE 13 17 7 9 1018.0 - 0.0
29/07:00am 23.8 24.1 16.1 62 4.7 ENE 9 11 5 6 1017.5 - 0.0
29/06:30am 22.9 23.3 16.2 66 4.1 E 9 9 5 5 1016.9 - 0.0
29/05:30am 24.0 22.5 15.4 58 5.2 E 17 19 9 10 1015.8 - 0.0
29/05:00am 24.1 24.0 15.9 60 5.0 SE 11 15 6 8 1015.5 - 0.0
29/04:30am 25.6 24.3 14.8 51 6.5 ENE 15 17 8 9 1014.9 - 0.0
29/04:00am 25.9 24.9 14.6 49 6.8 ENE 13 15 7 8 1014.7 - 0.0
29/03:30am 26.1 24.8 14.7 49 6.9 NE 15 17 8 9 1014.6 - 0.0
29/03:00am 26.4 25.0 14.4 47 7.2 NE 15 17 8 9 1014.7 1013.5 0.0
29/02:30am 26.8 24.9 14.3 46 7.5 NE 17 24 9 13 1014.6 - 0.0
29/02:00am 26.9 25.3 14.9 47 7.3 ENE 17 20 9 11 1014.7 - 0.0
29/01:30am 27.0 25.6 15.6 49 7.0 ENE 17 19 9 10 1015.1 - 0.0
29/01:00am 27.6 26.1 15.4 47 7.5 ENE 17 24 9 13 1015.5 - 0.0
29/12:30am 26.2 26.3 17.5 58 5.5 E 13 15 7 8 1015.7 - 0.0
29/12:00am 26.4 26.5 17.5 58 5.6 ESE 13 15 7 8 1015.7 1014.4 0.0
 
Date/Time
EST
Temp
°C
App
Temp
°C
Dew
Point
Rel
Hum
%
Delta-T
°C
Wind Press
QNH
hPa
Press
MSL
hPa
Rain
since 9 am
mm
Dir
 
Spd
km/h
Gust
km/h
Spd
kts
Gust
kts
28/11:30pm 26.6 26.5 17.8 58 5.6 ESE 15 15 8 8 1015.9 - 0.0
28/11:00pm 26.6 27.3 18.0 59 5.5 ESE 11 13 6 7 1016.1 - 0.0
28/10:30pm 26.6 27.9 18.5 61 5.2 E 9 11 5 6 1016.3 - 0.0
28/10:00pm 27.4 28.4 17.8 55 6.1 ESE 9 11 5 6 1016.4 - 0.0
28/09:30pm 27.8 29.1 17.6 53 6.5 E 7 9 4 5 1016.2 - 0.0
28/09:00pm 28.0 28.6 16.9 51 7.0 E 9 11 5 6 1016.1 1014.8 0.0
28/08:30pm 28.7 28.2 16.8 48 7.5 ENE 15 17 8 9 1015.9 - 0.0
28/08:00pm 28.7 27.5 17.0 49 7.4 NE 19 24 10 13 1015.9 - 0.0
28/07:30pm 29.1 28.5 17.5 49 7.4 E 17 24 9 13 1015.5 - 0.0
28/07:00pm 29.7 29.5 17.7 48 7.7 ESE 15 20 8 11 1015.2 - 0.0
28/06:30pm 30.4 30.0 17.2 45 8.4 SSE 15 19 8 10 1014.6 - 0.0
28/06:00pm 30.9 29.2 17.1 43 8.8 SE 22 30 12 16 1014.4 1013.2 0.0
28/05:30pm 32.1 29.8 16.7 39 9.8 SE 24 32 13 17 1014.3 - 0.0
28/05:00pm 32.0 30.3 18.1 43 9.0 S 24 35 13 19 1014.0 - 0.0
28/04:30pm 33.5 34.6 18.0 39 10.1 SW 9 13 5 7 1013.8 - 0.0
28/04:00pm 33.5 35.0 18.0 39 10.1 SW 7 9 4 5 1013.9 - 0.0
28/03:30pm 31.8 31.9 17.5 42 9.2 N 13 22 7 12 1014.1 - 0.0
28/03:00pm 33.4 31.7 15.8 34 11.1 SE 19 30 10 16 1014.2 1013.0 0.0
28/02:30pm 35.9 35.5 16.2 31 12.6 ENE 13 22 7 12 1014.3 - 0.0
28/02:00pm 35.7 35.1 16.7 32 12.2 NNE 15 24 8 13 1014.8 - 0.0
28/01:30pm 35.0 32.8 17.0 34 11.6 NE 24 30 13 16 1015.0 - 0.0
28/01:00pm 35.6 34.5 17.2 33 11.9 NNE 19 30 10 16 1015.5 - 0.0
28/12:30pm 35.0 33.8 17.4 35 11.4 NE 20 26 11 14 1016.2 - 0.0
28/12:00pm 34.2 33.1 17.7 37 10.7 NE 20 32 11 17 1016.8 1015.6 0.0
28/11:30am 34.5 33.6 18.1 37 10.7 NNE 20 33 11 18 1017.3 - 0.0
28/11:00am 32.4 29.8 17.7 41 9.5 NE 28 37 15 20 1017.8 - 0.0
28/10:30am 31.7 29.4 17.7 43 9.0 NNE 26 37 14 20 1018.2 - 0.0
28/10:00am 30.7 27.9 17.4 45 8.5 NE 28 33 15 18 1018.3 - 0.0
28/09:30am 30.3 26.5 15.7 41 9.1 NE 30 37 16 20 1018.4 - 0.0
28/09:00am 28.8 24.8 14.1 40 8.9 E 28 35 15 19 1018.4 1017.2 1.8
28/08:30am 26.6 22.1 12.6 42 8.2 E 28 32 15 17 1018.3 - 1.8
28/08:00am 25.5 21.5 11.7 42 7.9 ESE 24 30 13 16 1017.9 - 1.8
28/07:30am 24.3 20.7 10.7 42 7.6 SE 20 28 11 15 1017.5 - 1.8
28/07:00am 22.9 19.0 9.5 42 7.3 SE 20 28 11 15 1017.3 - 1.8
28/06:30am 22.5 18.5 9.2 42 7.2 SE 20 24 11 13 1017.0 - 1.8
28/06:00am 22.5 19.1 9.2 42 7.2 SE 17 20 9 11 1016.7 1015.5 1.8
28/05:30am 22.2 18.8 9.2 43 7.0 SE 17 20 9 11 1016.5 - 1.8
28/05:00am 22.5 18.6 8.7 41 7.4 SE 19 20 10 11 1016.0 - 1.8
28/04:30am 22.8 19.2 8.4 39 7.7 SE 17 24 9 13 1015.8 - 1.8
28/04:00am 22.8 18.9 8.6 40 7.6 SE 19 24 10 13 1015.6 - 1.8
28/03:30am 23.3 19.3 8.3 38 8.0 SE 19 22 10 12 1015.6 - 1.8
28/03:00am 23.4 19.4 9.2 40 7.7 SE 20 24 11 13 1015.7 1014.4 1.8
28/02:30am 24.1 20.2 9.5 39 8.0 SE 20 26 11 14 1015.9 - 1.6
28/02:00am 24.3 22.0 11.7 45 7.2 SSE 15 19 8 10 1016.1 - 1.6
28/01:30am 24.1 24.3 17.7 67 4.0 SSE 13 17 7 9 1016.3 - 1.6
28/01:00am 25.2 25.2 18.1 64 4.5 SE 15 19 8 10 1016.3 - 1.6
28/12:30am 24.9 25.1 18.6 68 4.0 SE 15 17 8 9 1016.6 - 1.6
28/12:00am 24.0 25.5 20.5 81 2.3 ESE 13 15 7 8 1016.7 1015.5 1.6
 
Date/Time
EST
Temp
°C
App
Temp
°C
Dew
Point
Rel
Hum
%
Delta-T
°C
Wind Press
QNH
hPa
Press
MSL
hPa
Rain
since 9 am
mm
Dir
 
Spd
km/h
Gust
km/h
Spd
kts
Gust
kts
27/11:30pm 25.0 26.3 19.4 71 3.6 SSE 11 13 6 7 1016.7 - 1.6
27/11:00pm 25.3 27.1 19.6 70 3.7 SE 9 9 5 5 1016.7 - 1.6
27/10:30pm 25.6 27.5 19.8 70 3.8 ESE 9 11 5 6 1016.9 - 1.6
27/10:00pm 25.4 28.1 20.7 75 3.1 SSE 7 9 4 5 1017.0 - 1.6
27/09:30pm 26.3 29.1 20.4 70 3.9 SSE 6 7 3 4 1017.1 - 1.6
27/09:00pm 26.6 27.9 20.2 68 4.2 E 13 15 7 8 1016.9 1015.7 1.6
27/08:30pm 28.0 27.4 18.4 56 6.2 SE 19 24 10 13 1016.4 - 1.6
27/08:00pm 27.8 27.6 18.5 57 6.0 E 17 22 9 12 1015.9 - 1.6
27/07:30pm 28.2 28.2 19.0 57 6.0 ESE 17 20 9 11 1015.6 - 1.6
27/07:00pm 28.5 27.6 19.1 56 6.1 E 22 30 12 16 1015.1 - 1.6
27/06:30pm 28.8 31.1 19.8 58 5.9 WSW 7 13 4 7 1014.6 - 1.6
27/06:00pm 27.0 28.6 20.8 69 4.1 N 13 19 7 10 1014.3 1013.1 1.6
27/05:30pm 26.2 25.3 19.9 68 4.1 ESE 24 37 13 20 1014.5 - 1.2
27/05:04pm 27.0 24.7 19.3 62 5.0 SSE 30 48 16 26 1014.8 - 0.8
27/05:00pm 28.4 29.9 19.7 59 5.7 W 11 13 6 7 1014.7 - 0.8
27/04:51pm 30.8 31.7 18.3 47 8.1 NW 11 13 6 7 1014.2 - 0.0
27/04:30pm 31.0 28.5 17.2 43 8.8 N 26 33 14 18 1013.8 - 0.0
27/04:00pm 33.4 30.4 14.9 32 11.5 NNE 24 32 13 17 1013.5 - 0.0
27/03:30pm 35.2 33.2 15.4 30 12.5 ENE 20 26 11 14 1013.5 - 0.0
27/03:00pm 35.9 35.5 15.1 29 13.1 SW 11 15 6 8 1013.6 1012.4 0.0
27/02:30pm 34.5 34.0 15.9 33 11.8 ESE 13 20 7 11 1013.9 - 0.0
27/02:00pm 35.5 35.9 16.3 32 12.3 NNE 9 15 5 8 1014.4 - 0.0
27/01:30pm 35.3 35.2 16.0 31 12.3 E 11 15 6 8 1014.8 - 0.0
27/01:00pm 34.1 33.6 15.9 33 11.5 ENE 13 20 7 11 1015.6 - 0.0
27/12:30pm 34.5 33.3 16.1 33 11.7 E 17 26 9 14 1016.2 - 0.0
27/12:00pm 33.6 30.3 12.9 28 12.5 SE 22 37 12 20 1016.9 1015.7 0.0
27/11:30am 32.3 29.3 12.1 29 12.0 SE 19 30 10 16 1017.6 - 0.0
27/11:00am 31.5 27.5 10.6 27 12.1 SE 22 30 12 16 1018.2 - 0.0
27/10:30am 30.3 26.2 8.6 26 12.1 ESE 20 30 11 16 1018.6 - 0.0
27/10:00am 30.2 24.8 8.1 25 12.2 SE 26 35 14 19 1018.8 - 0.0
27/09:30am 29.1 22.7 5.2 22 12.5 SE 28 35 15 19 1018.9 - 0.0
27/09:00am 27.2 19.5 2.4 20 12.2 SE 32 41 17 22 1018.9 1017.7 0.0
27/08:30am 26.9 18.7 0.6 18 12.5 SE 33 44 18 24 1018.9 - 0.0
27/08:00am 25.9 17.7 -0.9 17 12.3 SSE 32 39 17 21 1018.9 - 0.0
27/07:30am 24.7 17.2 -1.1 18 11.7 SSE 28 37 15 20 1018.5 - 0.0
27/07:00am 23.9 17.3 -0.5 20 11.1 SSE 24 30 13 16 1018.3 - 0.0
27/06:30am 23.7 18.1 -0.1 20 10.9 SSE 19 26 10 14 1017.9 - 0.0
27/06:00am 23.5 17.3 -0.1 21 10.8 SSE 22 28 12 15 1017.6 1016.4 0.0
27/05:30am 23.6 17.1 0.1 21 10.8 SSE 24 30 13 16 1017.2 - 0.0
27/05:00am 23.7 17.9 -0.1 20 10.9 S 20 28 11 15 1017.1 - 0.0
27/04:30am 23.9 18.8 0.8 22 10.8 S 17 26 9 14 1017.0 - 0.0
27/04:00am 24.2 18.6 1.0 21 10.9 S 20 26 11 14 1016.8 - 0.0
27/03:30am 24.5 18.9 0.9 21 11.1 S 20 26 11 14 1016.8 - 0.0
27/03:00am 24.9 19.8 0.9 20 11.3 S 17 26 9 14 1017.0 1015.8 0.0
27/02:30am 25.6 20.2 1.3 20 11.6 S 19 26 10 14 1017.2 - 0.0
27/02:00am 25.3 20.7 1.8 21 11.3 S 15 19 8 10 1017.5 - 0.0
27/01:30am 25.2 21.5 2.6 23 11.0 S 11 13 6 7 1017.5 - 0.0
27/01:00am 25.1 21.0 2.4 23 11.0 S 13 15 7 8 1017.6 - 0.0
27/12:30am 25.3 21.6 2.1 22 11.2 S 11 13 6 7 1017.8 - 0.0
27/12:00am 25.7 22.0 2.6 22 11.3 S 11 15 6 8 1017.8 1016.6 0.0
 
Date/Time
EST
Temp
°C
App
Temp
°C
Dew
Point
Rel
Hum
%
Delta-T
°C
Wind Press
QNH
hPa
Press
MSL
hPa
Rain
since 9 am
mm
Dir
 
Spd
km/h
Gust
km/h
Spd
kts
Gust
kts
26/11:30pm 26.5 22.4 2.1 20 11.9 S 13 15 7 8 1017.8 - 0.0
26/11:00pm 27.1 22.9 1.8 19 12.3 S 13 15 7 8 1017.9 - 0.0
26/10:30pm 27.9 23.3 1.3 18 12.9 S 15 19 8 10 1017.9 - 0.0
26/10:00pm 28.4 23.6 0.4 16 13.4 S 15 19 8 10 1017.9 - 0.0
26/09:30pm 29.1 23.9 0.0 15 13.9 S 17 20 9 11 1017.8 - 0.0
26/09:00pm 29.9 24.2 -0.6 14 14.5 S 19 26 10 14 1017.6 1016.4 0.0
26/08:30pm 30.2 23.6 -0.7 13 14.7 S 24 30 13 16 1017.3 - 0.0
26/08:00pm 30.5 23.5 -0.8 13 14.9 S 26 37 14 20 1016.9 - 0.0
26/07:30pm 31.2 23.7 -1.2 12 15.4 S 28 33 15 18 1016.4 - 0.0
26/07:00pm 31.9 24.1 -0.6 12 15.7 S 30 37 16 20 1016.0 - 0.0
26/06:30pm 32.6 25.2 -0.6 12 16.1 SSW 28 37 15 20 1015.6 - 0.0
26/06:00pm 33.9 27.6 1.6 13 16.4 S 24 32 13 17 1015.0 1013.8 0.0
26/05:30pm 34.5 28.3 2.2 13 16.6 S 24 35 13 19 1014.7 - 0.0
26/05:00pm 35.1 28.1 2.1 12 17.0 SSW 28 37 15 20 1014.4 - 0.0
26/04:30pm 35.5 29.6 1.5 12 17.4 SSW 22 30 12 16 1014.3 - 0.0
26/04:00pm 35.0 27.9 1.5 12 17.1 SSW 28 37 15 20 1014.1 - 0.0

Other Formats:

Comma delimited format used in spreadsheet applications
http://www.bom.gov.au/fwo/IDQ60801/IDQ60801.94346.axf

JavaScript Object Notation format (JSON) in row-major order
http://www.bom.gov.au/fwo/IDQ60801/IDQ60801.94346.json